Millersburg, Iowa
Current Conditions -  °F | °C
As of 8:15 AM on Thursday 29 Jan 2015 (Local Time) from KOOA Reporting Station
Overcast Overcast  
Wind Chill: 22°   Ceiling: 1400
Heat Index: 34°   Visibility: 10mi
Dew Point: 31°   Wind: 22mph
Humidity: 90%   Direction: 320°NW
Pressure: 30.09"   Gusts: 31mph
Location:  41.57°N, 92.16°W
Report Text: KOOA 291415Z AUTO 32019G27KT 10SM OVC014 01/00 A3009 RMK AO2 T00121003
Loading
Personal Weather Stations






























Interactive Weather Map New forecast layout! Learn more

10-Day Weather Forecast

Advertisements
Track Severe Weather on mobile